Time;durP1;ratioP1;P1;durP2;ratioP2;P2;SDS_P1;SDS_P2;PMS_P1;PMS_P2;Temp;Humidity;BMP_temperature;BMP_pressure;BME280_temperature;BME280_humidity;BME280_pressure;Samples;Min_cycle;Max_cycle;Signal;HPM_P1;HPM_P2
2022/12/30 00:01:11;;;;;;;22.35;5.18;;;6.90;99.90;;;;;;4935460;28;20380;-72
2022/12/30 00:03:37;;;;;;;22.58;5.60;;;6.90;99.90;;;;;;4922164;29;20048;-73
2022/12/30 00:06:05;;;;;;;23.45;5.35;;;6.90;99.90;;;;;;4916417;29;20040;-72
2022/12/30 00:08:46;;;;;;;21.77;5.32;;;6.90;99.90;;;;;;4919486;29;20059;-72
2022/12/30 00:11:29;;;;;;;22.85;5.38;;;6.80;99.90;;;;;;4932981;28;21659;-72
2022/12/30 00:34:25;;;;;;;21.80;5.10;;;6.60;99.90;;;;;;4919705;29;20131;-72
2022/12/30 00:36:55;;;;;;;18.05;4.65;;;6.60;99.90;;;;;;4922545;29;20087;-72
2022/12/30 00:39:21;;;;;;;23.00;5.35;;;6.60;99.90;;;;;;4889261;29;20032;-73
2022/12/30 00:44:35;;;;;;;27.42;5.85;;;6.60;99.90;;;;;;4922119;29;20047;-72
2022/12/30 00:47:01;;;;;;;24.75;5.55;;;6.60;99.90;;;;;;4919953;29;20046;-72
2022/12/30 00:57:40;;;;;;;23.33;5.85;;;6.60;99.90;;;;;;4904515;29;20647;-72
2022/12/30 01:00:08;;;;;;;24.83;5.57;;;6.60;99.90;;;;;;4873189;29;20039;-72
2022/12/30 01:02:34;;;;;;;24.13;5.60;;;6.60;99.90;;;;;;4915564;29;20446;-73
2022/12/30 01:04:59;;;;;;;26.58;5.90;;;6.50;99.90;;;;;;4889458;29;20051;-72
2022/12/30 01:07:28;;;;;;;24.35;5.75;;;6.50;99.90;;;;;;4921151;29;20044;-72
2022/12/30 01:09:55;;;;;;;23.90;5.55;;;6.50;99.90;;;;;;4907450;29;20047;-72
2022/12/30 01:12:21;;;;;;;29.20;6.80;;;6.40;99.90;;;;;;4921152;29;20059;-72
2022/12/30 01:14:49;;;;;;;26.13;6.13;;;6.40;99.90;;;;;;4913924;29;20135;-72
2022/12/30 01:17:21;;;;;;;22.20;5.75;;;6.40;99.90;;;;;;4903374;29;20409;-72
2022/12/30 01:19:47;;;;;;;18.75;5.07;;;6.40;99.90;;;;;;4917122;29;20127;-72
2022/12/30 01:22:13;;;;;;;20.30;4.63;;;6.30;99.90;;;;;;4899464;29;20130;-71
2022/12/30 01:24:38;;;;;;;20.23;5.88;;;6.40;99.90;;;;;;4921159;29;20083;-71
2022/12/30 01:27:05;;;;;;;24.83;5.30;;;6.40;99.90;;;;;;4933452;28;20475;-72
2022/12/30 01:29:36;;;;;;;22.85;5.05;;;6.40;99.90;;;;;;4918472;29;20058;-72
2022/12/30 01:32:08;;;;;;;23.95;5.90;;;6.40;99.90;;;;;;4929267;28;20105;-72
2022/12/30 01:34:34;;;;;;;27.67;5.40;;;6.40;99.90;;;;;;4916745;29;20575;-72
2022/12/30 01:37:00;;;;;;;23.48;5.35;;;6.30;99.90;;;;;;4915634;29;20039;-72
2022/12/30 01:39:26;;;;;;;21.50;5.38;;;6.30;99.90;;;;;;4917324;29;20050;-72
2022/12/30 01:41:54;;;;;;;20.27;4.88;;;6.30;99.90;;;;;;4915468;29;20329;-72
2022/12/30 01:44:57;;;;;;;18.40;4.63;;;6.20;99.90;;;;;;4913848;29;20051;-73
2022/12/30 01:47:47;;;;;;;26.33;5.40;;;6.30;99.90;;;;;;4914835;29;20076;-72
2022/12/30 01:50:26;;;;;;;16.95;5.00;;;6.20;99.90;;;;;;4915388;28;20055;-72
2022/12/30 01:53:19;;;;;;;21.38;4.97;;;6.20;99.90;;;;;;4920872;28;20146;-72
2022/12/30 01:55:57;;;;;;;21.88;5.30;;;6.20;99.90;;;;;;4902489;29;20051;-72
2022/12/30 01:58:52;;;;;;;17.83;5.35;;;6.20;99.90;;;;;;4909733;29;20533;-73
2022/12/30 02:01:18;;;;;;;25.75;5.95;;;6.20;99.90;;;;;;4890179;29;20109;-72
2022/12/30 02:03:48;;;;;;;21.17;4.75;;;6.20;99.90;;;;;;4889019;29;21086;-72
2022/12/30 02:06:22;;;;;;;24.35;5.63;;;6.10;99.90;;;;;;4938109;28;20414;-72
2022/12/30 02:08:48;;;;;;;24.05;6.00;;;6.20;99.90;;;;;;4921181;29;20043;-72
2022/12/30 02:11:13;;;;;;;22.55;5.43;;;6.10;99.90;;;;;;4921644;29;20050;-72
2022/12/30 02:13:39;;;;;;;16.55;5.38;;;6.10;99.90;;;;;;4922553;29;20079;-72
2022/12/30 02:16:24;;;;;;;26.88;5.85;;;6.10;99.90;;;;;;4907920;29;20067;-72
2022/12/30 02:19:11;;;;;;;22.58;6.22;;;6.10;99.90;;;;;;4933589;28;20059;-72
2022/12/30 02:21:46;;;;;;;18.63;4.78;;;6.10;99.90;;;;;;4921626;29;20379;-72
2022/12/30 02:24:43;;;;;;;26.58;6.05;;;6.10;99.90;;;;;;4915655;29;20083;-72
2022/12/30 02:27:12;;;;;;;22.80;5.82;;;6.00;99.90;;;;;;4934197;28;20498;-73
2022/12/30 02:30:05;;;;;;;24.65;6.22;;;6.00;99.90;;;;;;4919674;29;20052;-72
2022/12/30 02:33:08;;;;;;;20.30;5.35;;;6.00;99.90;;;;;;4915101;29;20052;-72
2022/12/30 02:35:46;;;;;;;18.08;5.03;;;6.00;99.90;;;;;;4917500;29;20056;-72
2022/12/30 02:38:23;;;;;;;23.13;6.35;;;6.00;99.90;;;;;;4916320;29;20091;-73
2022/12/30 02:44:38;;;;;;;22.13;5.22;;;6.00;99.90;;;;;;4916652;29;20073;-72
2022/12/30 02:47:28;;;;;;;21.95;5.72;;;6.00;99.90;;;;;;4899591;29;20816;-73
2022/12/30 02:52:47;;;;;;;19.90;5.38;;;6.00;99.90;;;;;;4931098;28;20658;-72
2022/12/30 02:55:15;;;;;;;21.38;5.68;;;5.90;99.90;;;;;;4922573;29;20044;-72
2022/12/30 02:57:44;;;;;;;19.17;5.25;;;5.90;99.90;;;;;;4910087;29;20584;-72
2022/12/30 03:06:19;;;;;;;24.40;6.53;;;5.90;99.90;;;;;;4916323;29;20095;-72
2022/12/30 03:09:10;;;;;;;21.10;5.00;;;5.90;99.90;;;;;;4918059;29;20561;-72
2022/12/30 03:11:57;;;;;;;22.75;5.18;;;5.90;99.90;;;;;;4911380;29;20228;-72
2022/12/30 03:14:42;;;;;;;18.73;5.38;;;5.90;99.90;;;;;;4918144;29;20047;-72
2022/12/30 03:17:38;;;;;;;21.30;5.85;;;5.90;99.90;;;;;;4916463;29;20048;-72
2022/12/30 03:20:09;;;;;;;21.70;4.80;;;5.90;99.90;;;;;;4902006;29;20051;-72
2022/12/30 03:28:14;;;;;;;20.05;4.57;;;5.80;99.90;;;;;;4916878;29;20302;-72
2022/12/30 03:30:50;;;;;;;27.50;5.40;;;5.80;99.90;;;;;;4913961;29;20040;-72
2022/12/30 03:33:18;;;;;;;24.55;5.22;;;5.80;99.90;;;;;;4933773;28;20107;-72
2022/12/30 03:36:00;;;;;;;20.27;5.20;;;5.80;99.90;;;;;;4915584;29;20127;-72
2022/12/30 03:38:33;;;;;;;24.90;5.13;;;5.80;99.90;;;;;;4903373;29;20063;-72
2022/12/30 03:41:01;;;;;;;18.02;4.85;;;5.70;99.90;;;;;;4912188;29;20043;-72
2022/12/30 03:43:27;;;;;;;22.02;4.97;;;5.70;99.90;;;;;;4941232;28;20608;-72
2022/12/30 03:45:54;;;;;;;22.55;4.85;;;5.70;99.90;;;;;;4912162;29;20040;-72
2022/12/30 03:48:20;;;;;;;15.82;4.53;;;5.70;99.90;;;;;;4913239;29;20183;-72
2022/12/30 03:50:45;;;;;;;23.13;4.95;;;5.60;99.90;;;;;;4908441;29;20040;-72
2022/12/30 03:53:11;;;;;;;21.13;5.28;;;5.60;99.90;;;;;;4883364;29;20051;-72
2022/12/30 03:55:43;;;;;;;18.23;4.78;;;5.60;99.90;;;;;;4882355;29;20523;-72
2022/12/30 03:58:08;;;;;;;19.65;4.60;;;5.60;99.90;;;;;;4943130;28;20249;-72
2022/12/30 04:00:34;;;;;;;23.13;4.85;;;5.70;99.90;;;;;;4913514;29;20426;-71
2022/12/30 04:03:00;;;;;;;21.05;5.55;;;5.60;99.90;;;;;;4912923;29;20062;-72
2022/12/30 04:05:26;;;;;;;25.60;6.25;;;5.60;99.90;;;;;;4897226;29;20054;-72
2022/12/30 04:07:52;;;;;;;21.75;5.07;;;5.60;99.90;;;;;;4914141;29;20044;-72
2022/12/30 04:10:17;;;;;;;21.35;5.18;;;5.60;99.90;;;;;;4897675;29;20040;-72
2022/12/30 04:12:43;;;;;;;25.40;5.68;;;5.60;99.90;;;;;;4895197;29;20412;-72
2022/12/30 04:15:09;;;;;;;18.83;5.13;;;5.60;99.90;;;;;;4914189;29;20044;-72
2022/12/30 04:17:35;;;;;;;20.20;5.45;;;5.60;99.90;;;;;;4912231;29;20137;-72
2022/12/30 04:20:01;;;;;;;19.67;5.80;;;5.60;99.90;;;;;;4912523;29;20078;-72
2022/12/30 04:22:28;;;;;;;19.30;5.03;;;5.60;99.90;;;;;;4928550;28;20266;-72
2022/12/30 04:24:54;;;;;;;22.15;6.03;;;5.60;99.90;;;;;;4909559;29;20766;-72
2022/12/30 04:27:19;;;;;;;23.75;6.07;;;5.50;99.90;;;;;;4913140;29;20074;-72
2022/12/30 04:29:45;;;;;;;20.38;5.20;;;5.60;99.90;;;;;;4896050;29;20059;-72
2022/12/30 04:32:11;;;;;;;19.33;5.15;;;5.50;99.90;;;;;;4898409;29;20044;-71
2022/12/30 04:34:40;;;;;;;21.70;6.18;;;5.60;99.90;;;;;;4913193;29;20482;-72
2022/12/30 04:37:06;;;;;;;17.88;5.70;;;5.60;99.90;;;;;;4913212;29;20042;-72
2022/12/30 04:39:32;;;;;;;16.27;5.18;;;5.50;99.90;;;;;;4928354;28;20065;-72
2022/12/30 04:41:57;;;;;;;19.30;5.95;;;5.50;99.90;;;;;;4911332;29;20060;-72
2022/12/30 04:44:23;;;;;;;17.10;5.38;;;5.50;99.90;;;;;;4896145;29;20047;-72
2022/12/30 04:46:49;;;;;;;15.88;5.68;;;5.50;99.90;;;;;;4895986;29;20059;-72
2022/12/30 04:49:15;;;;;;;21.63;6.07;;;5.50;99.90;;;;;;4897691;29;20044;-72
2022/12/30 04:51:40;;;;;;;21.67;6.70;;;5.50;99.90;;;;;;4910848;29;20699;-71
2022/12/30 04:54:06;;;;;;;16.38;6.03;;;5.40;99.90;;;;;;4927849;28;20067;-72
2022/12/30 04:56:32;;;;;;;18.25;6.43;;;5.40;99.90;;;;;;4911097;29;20076;-72
2022/12/30 04:58:57;;;;;;;22.40;6.75;;;5.40;99.90;;;;;;4880495;29;20463;-72
2022/12/30 05:01:23;;;;;;;18.88;6.50;;;5.40;99.90;;;;;;4912311;29;20039;-72
2022/12/30 05:03:49;;;;;;;17.60;5.82;;;5.40;99.90;;;;;;4910954;29;20071;-72
2022/12/30 05:06:15;;;;;;;15.73;6.35;;;5.40;99.90;;;;;;4908771;29;20052;-72
2022/12/30 05:08:41;;;;;;;20.30;6.93;;;5.40;99.90;;;;;;4910632;29;20052;-72
2022/12/30 05:11:07;;;;;;;18.17;6.68;;;5.40;99.90;;;;;;4909962;29;20111;-72
2022/12/30 05:13:32;;;;;;;24.83;7.00;;;5.40;99.90;;;;;;4892293;29;20066;-72
2022/12/30 05:15:58;;;;;;;17.42;6.60;;;5.40;99.90;;;;;;4913401;29;20074;-73
2022/12/30 05:18:24;;;;;;;16.08;6.13;;;5.40;99.90;;;;;;4877179;29;20186;-72
2022/12/30 05:20:49;;;;;;;18.00;6.15;;;5.30;99.90;;;;;;4908752;29;20043;-72
2022/12/30 05:26:15;;;;;;;18.60;6.63;;;5.30;99.90;;;;;;4907972;29;20040;-73
2022/12/30 05:28:46;;;;;;;16.92;6.10;;;5.30;99.90;;;;;;4915157;28;20101;-72
2022/12/30 05:31:13;;;;;;;14.88;5.75;;;5.20;99.90;;;;;;4913883;28;20058;-72
2022/12/30 05:33:38;;;;;;;21.73;6.00;;;5.20;99.90;;;;;;4916149;28;20054;-72
2022/12/30 05:36:05;;;;;;;14.95;5.55;;;5.10;99.90;;;;;;4896331;29;20040;-72
2022/12/30 05:38:31;;;;;;;18.42;5.82;;;5.20;99.90;;;;;;4913961;28;20109;-72
2022/12/30 05:40:57;;;;;;;17.92;5.57;;;5.20;99.90;;;;;;4890348;28;20046;-72
2022/12/30 05:43:23;;;;;;;17.48;5.57;;;5.20;99.90;;;;;;4911073;28;20051;-72
2022/12/30 05:45:51;;;;;;;18.55;5.53;;;5.20;99.90;;;;;;4899721;29;20051;-72
2022/12/30 05:48:17;;;;;;;19.92;7.13;;;5.20;99.90;;;;;;4897811;28;20516;-72
2022/12/30 05:50:47;;;;;;;21.55;6.18;;;5.10;99.90;;;;;;4943692;28;20094;-72
2022/12/30 05:53:12;;;;;;;20.77;5.67;;;5.10;99.90;;;;;;4915654;28;20246;-72
2022/12/30 05:55:38;;;;;;;19.95;5.82;;;5.10;99.90;;;;;;4899506;28;20052;-72
2022/12/30 05:58:04;;;;;;;21.40;5.47;;;5.10;99.90;;;;;;4882561;28;20111;-72
2022/12/30 06:00:30;;;;;;;17.73;4.80;;;5.20;99.90;;;;;;4915730;28;20066;-72
2022/12/30 06:02:56;;;;;;;16.35;4.53;;;5.10;99.90;;;;;;4914088;28;20070;-72
2022/12/30 06:05:22;;;;;;;19.42;5.63;;;5.00;99.90;;;;;;4913842;28;20055;-72
2022/12/30 06:07:48;;;;;;;17.65;5.10;;;5.10;99.90;;;;;;4915426;29;20473;-73
2022/12/30 06:10:14;;;;;;;19.92;5.40;;;5.10;99.90;;;;;;4942184;28;20709;-72
2022/12/30 06:12:40;;;;;;;13.10;4.32;;;5.10;99.90;;;;;;4912252;29;20055;-72
2022/12/30 06:15:06;;;;;;;17.17;4.55;;;5.10;99.90;;;;;;4913824;28;20043;-72
2022/12/30 06:17:32;;;;;;;16.60;4.07;;;5.10;99.90;;;;;;4907845;29;20055;-72
2022/12/30 06:19:58;;;;;;;16.48;4.95;;;5.10;99.90;;;;;;4928705;28;20074;-72
2022/12/30 06:22:23;;;;;;;17.60;4.72;;;5.10;99.90;;;;;;4898695;28;20043;-72
2022/12/30 06:24:49;;;;;;;20.75;4.85;;;5.10;99.90;;;;;;4907777;28;20496;-72
2022/12/30 06:27:15;;;;;;;19.98;5.13;;;5.10;99.90;;;;;;4909174;29;20060;-72
2022/12/30 06:29:41;;;;;;;18.42;4.90;;;5.10;99.90;;;;;;4908442;29;20487;-72
2022/12/30 06:32:08;;;;;;;16.35;4.70;;;5.10;99.90;;;;;;4898895;29;20054;-72
2022/12/30 06:34:34;;;;;;;20.45;5.57;;;5.10;99.90;;;;;;4931889;28;20135;-72
2022/12/30 06:36:59;;;;;;;16.20;4.97;;;5.10;99.90;;;;;;4930885;28;20032;-72
2022/12/30 06:39:25;;;;;;;18.40;4.50;;;5.00;99.90;;;;;;4924273;28;20510;-72
2022/12/30 06:41:51;;;;;;;17.00;4.60;;;5.00;99.90;;;;;;4898886;29;20054;-72
2022/12/30 06:44:17;;;;;;;19.75;4.80;;;5.10;99.90;;;;;;4913899;29;20075;-72
2022/12/30 06:46:43;;;;;;;15.82;5.78;;;5.10;99.90;;;;;;4928229;28;20055;-72
2022/12/30 06:49:09;;;;;;;19.20;5.65;;;5.00;99.90;;;;;;4912870;29;20695;-71
2022/12/30 06:51:35;;;;;;;20.15;4.75;;;5.10;99.90;;;;;;4914594;29;21139;-71
2022/12/30 06:54:00;;;;;;;20.73;5.32;;;5.10;99.90;;;;;;4931716;28;20808;-72
2022/12/30 06:56:27;;;;;;;17.30;5.25;;;5.00;99.90;;;;;;4929674;28;20266;-72
2022/12/30 06:58:52;;;;;;;19.85;5.30;;;5.00;99.90;;;;;;4912593;29;20062;-71
2022/12/30 07:01:18;;;;;;;17.75;4.90;;;5.00;99.90;;;;;;4911933;29;20441;-71
2022/12/30 07:03:44;;;;;;;17.15;4.78;;;5.00;99.90;;;;;;4913394;29;20060;-72
2022/12/30 07:06:10;;;;;;;17.75;4.95;;;5.00;99.90;;;;;;4914144;29;20458;-71
2022/12/30 07:08:36;;;;;;;19.67;5.07;;;5.00;99.90;;;;;;4915442;29;20078;-72
2022/12/30 07:11:01;;;;;;;17.17;5.03;;;5.10;99.90;;;;;;4914277;29;20109;-71
2022/12/30 07:13:28;;;;;;;18.25;4.80;;;5.10;99.90;;;;;;4927206;28;20056;-71
2022/12/30 07:15:54;;;;;;;23.67;6.43;;;5.10;99.90;;;;;;4906398;29;20067;-72
2022/12/30 07:18:20;;;;;;;19.00;5.30;;;5.10;99.90;;;;;;4913007;29;20051;-72
2022/12/30 07:20:46;;;;;;;16.25;4.90;;;5.00;99.90;;;;;;4914081;29;20043;-72
2022/12/30 07:23:12;;;;;;;21.77;6.07;;;5.00;99.90;;;;;;4914506;29;20054;-72
2022/12/30 07:25:38;;;;;;;15.52;4.72;;;5.00;99.90;;;;;;4911721;29;20059;-72
2022/12/30 07:28:05;;;;;;;16.38;5.07;;;5.00;99.90;;;;;;4907687;29;20079;-72
2022/12/30 07:30:31;;;;;;;17.90;4.68;;;5.00;99.90;;;;;;4913947;29;20055;-71
2022/12/30 07:32:58;;;;;;;19.02;5.05;;;5.00;99.90;;;;;;4926300;28;20392;-72
2022/12/30 07:35:24;;;;;;;15.60;4.78;;;5.10;99.90;;;;;;4912448;29;20562;-72
2022/12/30 07:37:50;;;;;;;18.10;5.20;;;5.00;99.90;;;;;;4897247;29;20114;-72
2022/12/30 07:40:17;;;;;;;15.40;4.93;;;5.00;99.90;;;;;;4913316;29;20311;-72
2022/12/30 07:42:43;;;;;;;19.08;5.32;;;5.00;99.90;;;;;;4943493;28;20463;-71
2022/12/30 07:45:09;;;;;;;17.83;5.05;;;5.00;99.90;;;;;;4896536;29;20183;-71
2022/12/30 07:47:36;;;;;;;14.05;4.40;;;5.00;99.90;;;;;;4913471;29;20138;-71
2022/12/30 07:50:06;;;;;;;21.83;5.72;;;5.00;99.90;;;;;;4894729;29;20114;-72
2022/12/30 07:52:32;;;;;;;16.40;4.68;;;5.00;99.90;;;;;;4928343;28;20043;-71
2022/12/30 07:54:58;;;;;;;21.45;5.70;;;5.00;99.90;;;;;;4908419;29;20196;-71
2022/12/30 07:57:23;;;;;;;16.00;4.35;;;5.00;99.90;;;;;;4910045;29;20517;-72
2022/12/30 07:59:51;;;;;;;17.65;4.65;;;5.00;99.90;;;;;;4913150;29;20062;-72
2022/12/30 08:02:16;;;;;;;17.98;4.63;;;5.00;99.90;;;;;;4894940;29;20052;-71
2022/12/30 08:04:42;;;;;;;17.25;4.32;;;5.00;99.90;;;;;;4914226;29;20111;-72
2022/12/30 08:07:08;;;;;;;19.38;5.15;;;5.00;99.90;;;;;;4894910;29;20590;-72
2022/12/30 08:09:36;;;;;;;18.80;4.78;;;5.00;99.90;;;;;;4914651;29;20150;-71
2022/12/30 08:12:02;;;;;;;17.58;4.40;;;5.00;99.90;;;;;;4911233;29;20491;-72
2022/12/30 08:14:28;;;;;;;19.95;5.25;;;5.00;99.90;;;;;;4897456;29;20135;-72
2022/12/30 08:16:54;;;;;;;17.85;4.53;;;5.00;99.90;;;;;;4897876;29;20043;-72
2022/12/30 08:19:20;;;;;;;20.85;4.75;;;5.00;99.90;;;;;;4913793;29;20044;-71
2022/12/30 08:21:45;;;;;;;17.40;4.60;;;5.00;99.90;;;;;;4912329;29;20044;-71
2022/12/30 08:24:11;;;;;;;15.95;4.22;;;5.00;99.90;;;;;;4911790;29;20190;-72
2022/12/30 08:26:37;;;;;;;17.75;4.75;;;5.00;99.90;;;;;;4900730;28;20296;-72
2022/12/30 08:29:03;;;;;;;17.85;4.50;;;5.00;99.90;;;;;;4926002;28;20119;-71
2022/12/30 08:31:29;;;;;;;19.63;4.78;;;5.00;99.90;;;;;;4931868;28;20450;-71
2022/12/30 08:33:59;;;;;;;15.98;4.70;;;4.90;99.90;;;;;;4900617;28;20055;-71
2022/12/30 08:36:27;;;;;;;15.65;4.43;;;5.10;99.90;;;;;;4896791;28;20040;-71
2022/12/30 08:38:55;;;;;;;17.77;5.28;;;5.00;99.90;;;;;;4915562;28;20374;-72
2022/12/30 08:41:28;;;;;;;20.60;5.25;;;5.10;99.90;;;;;;4916148;28;20059;-71
2022/12/30 08:43:58;;;;;;;19.15;5.97;;;5.10;99.90;;;;;;4901065;28;20050;-72
2022/12/30 08:46:25;;;;;;;17.40;4.60;;;5.10;99.90;;;;;;4928259;28;20055;-72
2022/12/30 08:48:51;;;;;;;22.77;4.85;;;5.10;99.90;;;;;;4930242;28;20044;-72
2022/12/30 08:51:17;;;;;;;18.95;5.05;;;5.10;99.90;;;;;;4926483;28;20676;-71
2022/12/30 08:53:43;;;;;;;13.05;4.38;;;5.20;99.90;;;;;;4911015;28;20047;-72
2022/12/30 08:56:24;;;;;;;18.35;4.65;;;5.20;99.90;;;;;;4898176;28;20058;-72
2022/12/30 08:58:50;;;;;;;;;;;5.20;99.90;;;;;;4931614;28;20600;-71
2022/12/30 09:01:22;;;;;;;17.85;4.32;;;5.20;99.90;;;;;;4941667;28;20444;-72
2022/12/30 09:03:49;;;;;;;15.35;4.43;;;5.20;99.90;;;;;;4923072;28;20055;-72
2022/12/30 09:06:18;;;;;;;14.48;4.53;;;5.30;99.90;;;;;;4907291;29;20055;-72
2022/12/30 09:08:45;;;;;;;15.60;4.40;;;5.30;99.90;;;;;;4919431;28;20047;-72
2022/12/30 09:11:23;;;;;;;20.75;4.63;;;5.40;99.90;;;;;;4914632;29;20340;-71
2022/12/30 09:13:49;;;;;;;17.58;4.72;;;5.40;99.90;;;;;;4910804;28;20497;-71
2022/12/30 09:16:17;;;;;;;17.08;4.70;;;5.50;99.90;;;;;;4893159;28;20505;-71
2022/12/30 09:18:44;;;;;;;16.92;4.57;;;5.50;99.90;;;;;;4927610;28;20658;-71
2022/12/30 09:21:10;;;;;;;14.23;3.92;;;5.60;99.90;;;;;;4891805;28;20098;-72
2022/12/30 09:23:36;;;;;;;16.42;4.68;;;5.60;99.90;;;;;;4902776;28;20043;-72
2022/12/30 09:26:04;;;;;;;15.55;4.07;;;5.70;99.90;;;;;;4927391;28;20062;-72
2022/12/30 09:28:30;;;;;;;15.73;4.53;;;5.70;99.90;;;;;;4925564;28;20664;-71
2022/12/30 09:30:56;;;;;;;11.70;4.22;;;5.70;99.90;;;;;;4898273;28;20464;-71
2022/12/30 09:33:21;;;;;;;15.38;4.18;;;5.80;99.90;;;;;;4901421;29;20051;-72
2022/12/30 09:35:47;;;;;;;13.77;4.22;;;5.80;99.90;;;;;;4910809;29;20139;-71
2022/12/30 09:38:13;;;;;;;16.67;4.50;;;5.90;99.90;;;;;;4927462;28;20449;-71
2022/12/30 09:40:53;;;;;;;16.05;4.10;;;5.90;99.90;;;;;;4912183;29;20032;-72
2022/12/30 09:43:38;;;;;;;13.93;3.85;;;5.90;99.90;;;;;;4894303;29;20054;-72
2022/12/30 09:46:26;;;;;;;16.77;4.75;;;5.90;99.90;;;;;;4912520;29;20051;-72
2022/12/30 09:49:12;;;;;;;11.05;3.80;;;6.00;99.90;;;;;;4892037;29;20065;-72
2022/12/30 09:51:45;;;;;;;15.57;4.55;;;6.00;99.90;;;;;;4928727;28;20094;-72
2022/12/30 09:54:22;;;;;;;12.75;4.50;;;6.00;99.90;;;;;;4911933;29;20665;-71
2022/12/30 09:56:52;;;;;;;13.65;4.38;;;6.10;99.90;;;;;;4911970;29;20063;-71
2022/12/30 09:59:28;;;;;;;12.52;4.65;;;6.10;99.90;;;;;;4913203;29;20043;-73
2022/12/30 10:02:22;;;;;;;13.70;4.07;;;6.20;99.90;;;;;;4908210;29;20071;-74
2022/12/30 10:04:48;;;;;;;12.48;3.97;;;6.20;99.90;;;;;;4877883;29;20052;-73
2022/12/30 10:07:23;;;;;;;11.63;3.50;;;6.20;99.90;;;;;;4911693;29;20039;-73
2022/12/30 10:10:17;;;;;;;15.02;4.00;;;6.30;99.90;;;;;;4911470;29;21140;-73
2022/12/30 10:12:52;;;;;;;10.40;3.35;;;6.30;99.90;;;;;;4927449;28;20631;-73
2022/12/30 10:16:00;;;;;;;12.80;3.90;;;6.30;99.90;;;;;;4914099;29;20592;-72
2022/12/30 10:19:02;;;;;;;12.45;3.50;;;6.40;99.90;;;;;;4841173;29;20081;-72
2022/12/30 10:21:45;;;;;;;11.25;3.83;;;6.40;99.90;;;;;;4907991;29;20592;-72
2022/12/30 10:24:47;;;;;;;10.63;3.30;;;6.50;99.90;;;;;;4894766;29;20570;-72
2022/12/30 10:27:22;;;;;;;8.30;3.03;;;6.40;99.90;;;;;;4926075;28;20437;-72
2022/12/30 10:29:48;;;;;;;11.20;3.42;;;6.50;99.90;;;;;;4912477;29;20341;-72
2022/12/30 10:32:26;;;;;;;14.02;3.08;;;6.60;99.90;;;;;;4938687;28;20060;-73
2022/12/30 10:35:11;;;;;;;10.23;3.25;;;6.70;99.90;;;;;;4942636;28;20048;-72
2022/12/30 10:37:37;;;;;;;11.73;3.22;;;6.70;99.90;;;;;;4891381;29;20709;-73
2022/12/30 10:40:14;;;;;;;10.00;3.08;;;6.70;99.90;;;;;;4882387;29;20593;-73
2022/12/30 10:43:23;;;;;;;8.32;2.60;;;6.80;99.90;;;;;;4913184;29;20055;-72
2022/12/30 10:46:07;;;;;;;11.88;2.80;;;6.90;99.90;;;;;;4912770;29;20106;-72
2022/12/30 10:48:55;;;;;;;10.18;2.70;;;6.90;99.90;;;;;;4911135;29;20059;-72
2022/12/30 10:51:21;;;;;;;9.57;2.75;;;6.90;99.90;;;;;;4908859;29;20059;-72
2022/12/30 10:53:50;;;;;;;10.05;2.53;;;7.00;99.90;;;;;;4907889;29;20047;-72
2022/12/30 10:56:22;;;;;;;10.30;2.75;;;7.00;99.90;;;;;;4895505;29;20054;-74
2022/12/30 10:58:48;;;;;;;10.98;2.80;;;7.10;99.90;;;;;;4907212;29;20166;-71
2022/12/30 11:01:24;;;;;;;8.70;2.67;;;7.20;99.90;;;;;;4910298;29;20162;-71
2022/12/30 11:03:53;;;;;;;10.70;2.35;;;7.10;99.90;;;;;;4893398;29;20138;-71
2022/12/30 11:06:24;;;;;;;8.98;2.65;;;7.20;99.90;;;;;;4913331;29;20051;-72
2022/12/30 11:08:51;;;;;;;10.90;2.67;;;7.30;99.90;;;;;;4925041;28;20079;-72
2022/12/30 11:11:18;;;;;;;7.03;2.35;;;7.30;99.90;;;;;;4911356;29;21173;-72
2022/12/30 11:16:42;;;;;;;11.32;2.38;;;7.30;99.90;;;;;;4910537;29;20139;-71
2022/12/30 11:19:23;;;;;;;7.95;2.15;;;7.40;99.90;;;;;;4914181;29;20063;-71
2022/12/30 11:21:54;;;;;;;7.40;2.10;;;7.40;99.90;;;;;;4946754;28;20043;-72
2022/12/30 11:24:21;;;;;;;12.20;2.97;;;7.50;99.90;;;;;;4913745;29;20127;-71
2022/12/30 11:26:49;;;;;;;7.82;2.25;;;7.50;99.90;;;;;;4905149;29;20442;-72
2022/12/30 11:29:22;;;;;;;8.57;2.40;;;7.60;99.90;;;;;;4919209;29;20062;-72
2022/12/30 11:31:51;;;;;;;8.00;2.28;;;7.60;99.90;;;;;;4932076;28;21460;-72
2022/12/30 11:34:19;;;;;;;7.63;2.38;;;7.60;99.90;;;;;;4898810;29;20084;-73
2022/12/30 11:36:45;;;;;;;8.75;2.47;;;7.70;99.90;;;;;;4946899;28;20169;-72
2022/12/30 11:39:25;;;;;;;6.90;2.15;;;7.70;99.90;;;;;;4914007;29;20131;-72
2022/12/30 11:41:56;;;;;;;8.88;2.45;;;7.70;99.90;;;;;;4917971;29;20054;-72
2022/12/30 11:44:30;;;;;;;10.75;2.90;;;7.70;99.90;;;;;;4942129;28;20047;-72
2022/12/30 11:46:59;;;;;;;9.05;2.40;;;7.80;99.90;;;;;;4912532;29;20051;-71
2022/12/30 11:49:32;;;;;;;7.38;2.17;;;7.80;99.90;;;;;;4910973;29;20088;-71
2022/12/30 11:52:02;;;;;;;8.82;2.40;;;7.80;99.90;;;;;;4913442;29;20135;-71
2022/12/30 11:54:32;;;;;;;6.15;2.40;;;7.80;99.90;;;;;;4911040;29;20879;-71
2022/12/30 11:57:06;;;;;;;6.88;2.08;;;7.90;99.90;;;;;;4892015;29;20144;-72
2022/12/30 11:59:34;;;;;;;7.85;2.78;;;7.90;99.90;;;;;;4901252;29;20090;-72
2022/12/30 12:02:04;;;;;;;7.88;2.28;;;8.00;99.90;;;;;;4899663;29;20414;-72
2022/12/30 12:04:35;;;;;;;7.97;1.92;;;8.00;99.90;;;;;;4914163;29;20063;-72
2022/12/30 12:07:06;;;;;;;6.80;2.38;;;8.00;99.90;;;;;;4912886;29;20059;-72
2022/12/30 12:09:36;;;;;;;8.07;2.35;;;8.00;99.90;;;;;;4918115;28;21740;-72
2022/12/30 12:12:07;;;;;;;6.28;1.90;;;8.10;99.90;;;;;;4929515;28;20650;-72
2022/12/30 12:14:57;;;;;;;6.70;1.80;;;8.10;99.90;;;;;;4929967;28;20080;-72
2022/12/30 12:17:44;;;;;;;7.82;1.65;;;8.10;99.90;;;;;;4873130;29;20295;-72
2022/12/30 12:20:20;;;;;;;7.05;1.60;;;8.20;99.90;;;;;;4915257;29;20056;-71
2022/12/30 12:23:14;;;;;;;10.18;2.78;;;8.10;99.90;;;;;;4909272;29;20090;-71
2022/12/30 12:26:12;;;;;;;7.03;1.50;;;8.30;99.90;;;;;;4905765;29;20138;-72
2022/12/30 12:28:44;;;;;;;6.53;1.98;;;8.30;99.90;;;;;;4907694;29;20063;-70
2022/12/30 12:31:35;;;;;;;7.20;2.08;;;8.30;99.90;;;;;;4896688;29;20996;-73
2022/12/30 12:34:22;;;;;;;5.88;1.73;;;8.30;99.90;;;;;;4913704;29;20043;-72
2022/12/30 12:37:26;;;;;;;6.25;1.83;;;8.30;99.90;;;;;;4942357;28;20063;-72
2022/12/30 12:40:14;;;;;;;4.88;1.50;;;8.30;99.90;;;;;;4874633;29;20549;-72
2022/12/30 12:42:54;;;;;;;6.07;2.47;;;8.40;99.90;;;;;;4926692;28;20685;-73
2022/12/30 12:45:52;;;;;;;7.57;2.10;;;8.40;99.90;;;;;;4926582;28;20507;-73
2022/12/30 12:48:21;;;;;;;6.47;2.03;;;8.40;99.90;;;;;;4912143;29;20130;-73
2022/12/30 12:51:32;;;;;;;6.78;2.38;;;8.30;99.90;;;;;;4927440;28;20058;-73
2022/12/30 12:54:22;;;;;;;8.75;2.00;;;8.40;99.90;;;;;;4894565;29;20143;-73
2022/12/30 12:56:57;;;;;;;8.60;2.38;;;8.40;99.90;;;;;;4912220;29;20051;-73
2022/12/30 12:59:44;;;;;;;9.32;2.42;;;8.50;99.90;;;;;;4899163;29;20055;-73
2022/12/30 13:02:10;;;;;;;9.55;2.58;;;8.50;99.90;;;;;;4926440;28;20047;-74
2022/12/30 13:05:02;;;;;;;7.93;2.28;;;8.60;99.90;;;;;;4915730;29;20052;-73
2022/12/30 13:07:48;;;;;;;8.32;1.95;;;8.60;99.90;;;;;;4914141;29;20502;-74
2022/12/30 13:10:39;;;;;;;6.32;2.00;;;8.60;99.90;;;;;;4897020;29;20078;-73
2022/12/30 13:13:19;;;;;;;9.25;2.40;;;8.60;99.90;;;;;;4914059;29;20048;-73
2022/12/30 13:15:59;;;;;;;10.05;2.75;;;8.60;99.90;;;;;;4928218;28;20051;-74
2022/12/30 13:18:27;;;;;;;7.93;1.90;;;8.60;99.90;;;;;;4914284;29;20059;-73
2022/12/30 13:20:56;;;;;;;8.43;2.53;;;8.60;99.90;;;;;;4912936;29;20052;-73
2022/12/30 13:23:29;;;;;;;7.32;2.03;;;8.70;99.90;;;;;;4930584;28;20055;-73
2022/12/30 13:25:59;;;;;;;7.55;2.30;;;8.70;99.90;;;;;;4913416;29;20663;-73
2022/12/30 13:28:27;;;;;;;;;;;8.70;99.90;;;;;;4910374;29;20066;-73
2022/12/30 13:31:11;;;;;;;7.03;1.80;;;8.80;99.90;;;;;;4944398;28;19926;-73
2022/12/30 13:34:05;;;;;;;7.57;1.92;;;8.80;99.90;;;;;;4900898;29;20149;-73
2022/12/30 13:36:51;;;;;;;6.88;1.70;;;8.80;99.90;;;;;;4915152;29;20047;-74
2022/12/30 13:39:35;;;;;;;7.72;1.95;;;8.80;99.90;;;;;;4929634;28;20055;-73
2022/12/30 13:42:36;;;;;;;5.85;2.10;;;8.90;99.90;;;;;;4899073;28;20049;-73
2022/12/30 13:45:02;;;;;;;;;;;8.80;99.90;;;;;;4915823;29;20051;-76
2022/12/30 13:47:42;;;;;;;7.40;1.90;;;8.90;99.90;;;;;;4927791;28;19926;-77
2022/12/30 13:50:20;;;;;;;8.80;1.80;;;8.90;99.90;;;;;;4927548;28;20137;-77
2022/12/30 13:52:52;;;;;;;6.88;1.80;;;9.00;99.90;;;;;;4899404;28;20105;-77
2022/12/30 13:55:43;;;;;;;7.60;1.65;;;9.00;99.90;;;;;;4897922;28;20238;-77
2022/12/30 13:58:26;;;;;;;7.35;1.80;;;9.00;99.90;;;;;;4910309;29;20341;-78
2022/12/30 14:01:20;;;;;;;7.65;2.10;;;9.10;99.90;;;;;;4916261;29;20073;-76
2022/12/30 14:04:14;;;;;;;6.15;1.73;;;9.10;99.90;;;;;;4915140;28;20532;-78
2022/12/30 14:06:51;;;;;;;5.57;1.73;;;9.10;99.90;;;;;;4943444;28;20509;-79
2022/12/30 14:09:21;;;;;;;8.38;1.73;;;9.10;99.90;;;;;;4881182;29;20047;-76
2022/12/30 14:12:02;;;;;;;7.65;1.90;;;9.20;99.90;;;;;;4912908;28;20346;-76